sensor_id;sensor_type;location;lat;lon;timestamp;temperature;humidity
2867;DHT22;1441;48.886;8.728;2024-02-26T00:00:28;8.40;78.90
2867;DHT22;1441;48.886;8.728;2024-02-26T00:02:54;8.50;78.80
2867;DHT22;1441;48.886;8.728;2024-02-26T00:05:20;8.50;78.60
2867;DHT22;1441;48.886;8.728;2024-02-26T00:07:45;8.40;79.00
2867;DHT22;1441;48.886;8.728;2024-02-26T00:10:13;8.40;78.70
2867;DHT22;1441;48.886;8.728;2024-02-26T00:12:40;8.50;78.70
2867;DHT22;1441;48.886;8.728;2024-02-26T00:15:09;8.40;78.50
2867;DHT22;1441;48.886;8.728;2024-02-26T00:17:35;8.40;78.60
2867;DHT22;1441;48.886;8.728;2024-02-26T00:20:04;8.40;78.20
2867;DHT22;1441;48.886;8.728;2024-02-26T00:22:33;8.50;78.50
2867;DHT22;1441;48.886;8.728;2024-02-26T00:24:59;8.30;78.60
2867;DHT22;1441;48.886;8.728;2024-02-26T00:27:24;8.40;78.40
2867;DHT22;1441;48.886;8.728;2024-02-26T00:29:50;8.40;77.50
2867;DHT22;1441;48.886;8.728;2024-02-26T00:32:15;8.50;77.70
2867;DHT22;1441;48.886;8.728;2024-02-26T00:34:41;8.50;77.20
2867;DHT22;1441;48.886;8.728;2024-02-26T00:37:08;8.50;77.50
2867;DHT22;1441;48.886;8.728;2024-02-26T00:39:33;8.30;78.80
2867;DHT22;1441;48.886;8.728;2024-02-26T00:41:59;8.30;78.30
2867;DHT22;1441;48.886;8.728;2024-02-26T00:44:24;8.40;77.80
2867;DHT22;1441;48.886;8.728;2024-02-26T00:46:50;8.40;77.70
2867;DHT22;1441;48.886;8.728;2024-02-26T00:49:15;8.30;79.70
2867;DHT22;1441;48.886;8.728;2024-02-26T00:51:41;8.10;80.80
2867;DHT22;1441;48.886;8.728;2024-02-26T00:54:07;8.10;82.40
2867;DHT22;1441;48.886;8.728;2024-02-26T00:56:33;7.90;83.90
2867;DHT22;1441;48.886;8.728;2024-02-26T00:58:58;7.80;85.00
2867;DHT22;1441;48.886;8.728;2024-02-26T01:01:24;7.70;86.90
2867;DHT22;1441;48.886;8.728;2024-02-26T01:03:49;7.90;87.40
2867;DHT22;1441;48.886;8.728;2024-02-26T01:06:15;8.00;87.10
2867;DHT22;1441;48.886;8.728;2024-02-26T01:08:41;7.80;89.20
2867;DHT22;1441;48.886;8.728;2024-02-26T01:11:06;7.80;88.20
2867;DHT22;1441;48.886;8.728;2024-02-26T01:13:33;7.70;89.40
2867;DHT22;1441;48.886;8.728;2024-02-26T01:15:58;7.90;87.30
2867;DHT22;1441;48.886;8.728;2024-02-26T01:18:24;8.00;86.60
2867;DHT22;1441;48.886;8.728;2024-02-26T01:20:49;8.00;86.50
2867;DHT22;1441;48.886;8.728;2024-02-26T01:23:15;7.80;87.60
2867;DHT22;1441;48.886;8.728;2024-02-26T01:25:40;7.70;86.90
2867;DHT22;1441;48.886;8.728;2024-02-26T01:28:08;7.70;88.20
2867;DHT22;1441;48.886;8.728;2024-02-26T01:30:33;7.50;90.40
2867;DHT22;1441;48.886;8.728;2024-02-26T01:32:59;7.40;90.60
2867;DHT22;1441;48.886;8.728;2024-02-26T01:35:24;7.50;88.70
2867;DHT22;1441;48.886;8.728;2024-02-26T01:37:50;7.60;88.50
2867;DHT22;1441;48.886;8.728;2024-02-26T01:40:15;7.60;90.70
2867;DHT22;1441;48.886;8.728;2024-02-26T01:42:45;7.50;92.30
2867;DHT22;1441;48.886;8.728;2024-02-26T01:45:15;7.70;91.70
2867;DHT22;1441;48.886;8.728;2024-02-26T01:47:46;7.60;91.70
2867;DHT22;1441;48.886;8.728;2024-02-26T01:50:12;7.40;94.60
2867;DHT22;1441;48.886;8.728;2024-02-26T01:52:37;7.30;95.50
2867;DHT22;1441;48.886;8.728;2024-02-26T01:55:03;7.20;94.80
2867;DHT22;1441;48.886;8.728;2024-02-26T01:57:29;7.40;94.10
2867;DHT22;1441;48.886;8.728;2024-02-26T01:59:55;7.50;93.20
2867;DHT22;1441;48.886;8.728;2024-02-26T02:02:21;7.70;90.50
2867;DHT22;1441;48.886;8.728;2024-02-26T02:04:46;7.60;90.00
2867;DHT22;1441;48.886;8.728;2024-02-26T02:07:12;7.90;87.00
2867;DHT22;1441;48.886;8.728;2024-02-26T02:09:38;8.00;85.80
2867;DHT22;1441;48.886;8.728;2024-02-26T02:12:04;8.10;86.10
2867;DHT22;1441;48.886;8.728;2024-02-26T02:14:30;8.10;83.00
2867;DHT22;1441;48.886;8.728;2024-02-26T02:16:56;7.90;86.70
2867;DHT22;1441;48.886;8.728;2024-02-26T02:19:21;7.80;88.40
2867;DHT22;1441;48.886;8.728;2024-02-26T02:21:47;7.70;88.20
2867;DHT22;1441;48.886;8.728;2024-02-26T02:24:12;8.10;87.70
2867;DHT22;1441;48.886;8.728;2024-02-26T02:26:38;8.20;87.40
2867;DHT22;1441;48.886;8.728;2024-02-26T02:29:04;8.20;87.60
2867;DHT22;1441;48.886;8.728;2024-02-26T02:31:31;8.30;87.30
2867;DHT22;1441;48.886;8.728;2024-02-26T02:33:57;8.30;86.40
2867;DHT22;1441;48.886;8.728;2024-02-26T02:36:22;8.30;87.50
2867;DHT22;1441;48.886;8.728;2024-02-26T02:38:49;8.20;87.60
2867;DHT22;1441;48.886;8.728;2024-02-26T02:41:18;8.20;88.60
2867;DHT22;1441;48.886;8.728;2024-02-26T02:43:44;8.10;88.50
2867;DHT22;1441;48.886;8.728;2024-02-26T02:46:09;8.10;90.10
2867;DHT22;1441;48.886;8.728;2024-02-26T02:48:37;8.00;91.00
2867;DHT22;1441;48.886;8.728;2024-02-26T02:51:03;8.00;89.50
2867;DHT22;1441;48.886;8.728;2024-02-26T02:53:28;7.90;90.20
2867;DHT22;1441;48.886;8.728;2024-02-26T02:55:54;7.80;91.70
2867;DHT22;1441;48.886;8.728;2024-02-26T02:58:19;7.70;93.10
2867;DHT22;1441;48.886;8.728;2024-02-26T03:00:45;7.60;94.00
2867;DHT22;1441;48.886;8.728;2024-02-26T03:03:10;7.50;94.80
2867;DHT22;1441;48.886;8.728;2024-02-26T03:05:36;7.40;95.40
2867;DHT22;1441;48.886;8.728;2024-02-26T03:08:01;7.30;95.80
2867;DHT22;1441;48.886;8.728;2024-02-26T03:10:27;7.30;96.50
2867;DHT22;1441;48.886;8.728;2024-02-26T03:12:53;7.20;96.90
2867;DHT22;1441;48.886;8.728;2024-02-26T03:15:19;7.20;97.40
2867;DHT22;1441;48.886;8.728;2024-02-26T03:17:45;7.30;98.00
2867;DHT22;1441;48.886;8.728;2024-02-26T03:20:11;7.40;98.30
2867;DHT22;1441;48.886;8.728;2024-02-26T03:22:38;7.40;99.20
2867;DHT22;1441;48.886;8.728;2024-02-26T03:25:04;7.50;98.80
2867;DHT22;1441;48.886;8.728;2024-02-26T03:27:30;7.40;98.90
2867;DHT22;1441;48.886;8.728;2024-02-26T03:29:55;7.40;99.00
2867;DHT22;1441;48.886;8.728;2024-02-26T03:32:22;7.40;99.80
2867;DHT22;1441;48.886;8.728;2024-02-26T03:34:47;7.40;99.80
2867;DHT22;1441;48.886;8.728;2024-02-26T03:37:13;7.30;99.80
2867;DHT22;1441;48.886;8.728;2024-02-26T03:39:38;7.30;99.90
2867;DHT22;1441;48.886;8.728;2024-02-26T03:42:04;7.20;99.90
2867;DHT22;1441;48.886;8.728;2024-02-26T03:44:30;7.20;99.90
2867;DHT22;1441;48.886;8.728;2024-02-26T03:46:55;7.30;99.90
2867;DHT22;1441;48.886;8.728;2024-02-26T03:49:21;7.30;99.90
2867;DHT22;1441;48.886;8.728;2024-02-26T03:51:47;7.30;99.90
2867;DHT22;1441;48.886;8.728;2024-02-26T03:54:13;7.20;99.90
2867;DHT22;1441;48.886;8.728;2024-02-26T03:56:39;7.20;99.90
2867;DHT22;1441;48.886;8.728;2024-02-26T03:59:05;7.30;99.90
2867;DHT22;1441;48.886;8.728;2024-02-26T04:01:30;7.30;99.90
2867;DHT22;1441;48.886;8.728;2024-02-26T04:03:56;7.20;99.90
2867;DHT22;1441;48.886;8.728;2024-02-26T04:06:21;7.10;99.90
2867;DHT22;1441;48.886;8.728;2024-02-26T04:08:48;7.20;99.90
2867;DHT22;1441;48.886;8.728;2024-02-26T04:11:14;7.20;99.90
2867;DHT22;1441;48.886;8.728;2024-02-26T04:13:43;7.30;99.90
2867;DHT22;1441;48.886;8.728;2024-02-26T04:16:11;7.40;99.90
2867;DHT22;1441;48.886;8.728;2024-02-26T04:18:37;7.30;99.90
2867;DHT22;1441;48.886;8.728;2024-02-26T04:21:04;7.30;99.90
2867;DHT22;1441;48.886;8.728;2024-02-26T04:23:30;7.30;99.90
2867;DHT22;1441;48.886;8.728;2024-02-26T04:25:56;7.30;99.90
2867;DHT22;1441;48.886;8.728;2024-02-26T04:28:21;7.30;99.90
2867;DHT22;1441;48.886;8.728;2024-02-26T04:30:47;7.20;99.90
2867;DHT22;1441;48.886;8.728;2024-02-26T04:33:13;7.10;99.90
2867;DHT22;1441;48.886;8.728;2024-02-26T04:35:39;7.00;99.90
2867;DHT22;1441;48.886;8.728;2024-02-26T04:38:04;7.10;99.90
2867;DHT22;1441;48.886;8.728;2024-02-26T04:40:30;7.00;99.90
2867;DHT22;1441;48.886;8.728;2024-02-26T04:42:56;7.00;99.90
2867;DHT22;1441;48.886;8.728;2024-02-26T04:45:21;7.00;99.90
2867;DHT22;1441;48.886;8.728;2024-02-26T04:47:47;7.20;99.90
2867;DHT22;1441;48.886;8.728;2024-02-26T04:50:12;7.00;99.90
2867;DHT22;1441;48.886;8.728;2024-02-26T04:52:38;6.90;99.90
2867;DHT22;1441;48.886;8.728;2024-02-26T04:55:03;6.80;99.90
2867;DHT22;1441;48.886;8.728;2024-02-26T04:57:29;6.80;99.90
2867;DHT22;1441;48.886;8.728;2024-02-26T04:59:55;7.10;99.90
2867;DHT22;1441;48.886;8.728;2024-02-26T05:02:21;7.20;99.90
2867;DHT22;1441;48.886;8.728;2024-02-26T05:04:46;7.20;99.90
2867;DHT22;1441;48.886;8.728;2024-02-26T05:07:12;7.00;99.90
2867;DHT22;1441;48.886;8.728;2024-02-26T05:09:37;7.20;99.90
2867;DHT22;1441;48.886;8.728;2024-02-26T05:12:03;7.20;99.90
2867;DHT22;1441;48.886;8.728;2024-02-26T05:14:29;7.00;99.90
2867;DHT22;1441;48.886;8.728;2024-02-26T05:16:54;7.10;99.90
2867;DHT22;1441;48.886;8.728;2024-02-26T05:19:21;7.20;99.40
2867;DHT22;1441;48.886;8.728;2024-02-26T05:21:46;7.40;97.90
2867;DHT22;1441;48.886;8.728;2024-02-26T05:24:14;7.40;97.00
2867;DHT22;1441;48.886;8.728;2024-02-26T05:26:41;7.40;97.30
2867;DHT22;1441;48.886;8.728;2024-02-26T05:29:06;7.50;96.90
2867;DHT22;1441;48.886;8.728;2024-02-26T05:31:32;7.50;96.80
2867;DHT22;1441;48.886;8.728;2024-02-26T05:33:57;7.60;97.20
2867;DHT22;1441;48.886;8.728;2024-02-26T05:36:23;7.50;97.60
2867;DHT22;1441;48.886;8.728;2024-02-26T05:38:49;7.50;97.80
2867;DHT22;1441;48.886;8.728;2024-02-26T05:41:18;7.60;97.20
2867;DHT22;1441;48.886;8.728;2024-02-26T05:43:49;7.60;97.10
2867;DHT22;1441;48.886;8.728;2024-02-26T05:46:17;7.60;96.80
2867;DHT22;1441;48.886;8.728;2024-02-26T05:48:49;7.60;97.00
2867;DHT22;1441;48.886;8.728;2024-02-26T05:51:14;7.70;96.90
2867;DHT22;1441;48.886;8.728;2024-02-26T05:53:44;7.60;97.10
2867;DHT22;1441;48.886;8.728;2024-02-26T05:56:10;7.60;97.00
2867;DHT22;1441;48.886;8.728;2024-02-26T05:58:36;7.60;97.00
2867;DHT22;1441;48.886;8.728;2024-02-26T06:01:02;7.50;97.30
2867;DHT22;1441;48.886;8.728;2024-02-26T06:03:27;7.40;97.70
2867;DHT22;1441;48.886;8.728;2024-02-26T06:05:53;7.40;97.60
2867;DHT22;1441;48.886;8.728;2024-02-26T06:08:19;7.40;97.60
2867;DHT22;1441;48.886;8.728;2024-02-26T06:10:44;7.30;99.20
2867;DHT22;1441;48.886;8.728;2024-02-26T06:13:10;7.40;98.30
2867;DHT22;1441;48.886;8.728;2024-02-26T06:15:35;7.50;98.20
2867;DHT22;1441;48.886;8.728;2024-02-26T06:18:01;7.50;97.30
2867;DHT22;1441;48.886;8.728;2024-02-26T06:20:26;7.50;97.20
2867;DHT22;1441;48.886;8.728;2024-02-26T06:22:52;7.50;97.50
2867;DHT22;1441;48.886;8.728;2024-02-26T06:25:17;7.50;97.30
2867;DHT22;1441;48.886;8.728;2024-02-26T06:27:43;7.50;97.50
2867;DHT22;1441;48.886;8.728;2024-02-26T06:30:09;7.50;97.80
2867;DHT22;1441;48.886;8.728;2024-02-26T06:32:37;7.50;97.70
2867;DHT22;1441;48.886;8.728;2024-02-26T06:35:02;7.40;99.40
2867;DHT22;1441;48.886;8.728;2024-02-26T06:37:32;7.40;99.40
2867;DHT22;1441;48.886;8.728;2024-02-26T06:40:01;7.40;99.30
2867;DHT22;1441;48.886;8.728;2024-02-26T06:42:32;7.50;99.00
2867;DHT22;1441;48.886;8.728;2024-02-26T06:44:57;7.50;99.40
2867;DHT22;1441;48.886;8.728;2024-02-26T06:47:23;7.70;98.70
2867;DHT22;1441;48.886;8.728;2024-02-26T06:49:48;7.70;98.60
2867;DHT22;1441;48.886;8.728;2024-02-26T06:52:14;7.60;99.40
2867;DHT22;1441;48.886;8.728;2024-02-26T06:54:39;7.80;98.80
2867;DHT22;1441;48.886;8.728;2024-02-26T06:57:05;7.80;98.70
2867;DHT22;1441;48.886;8.728;2024-02-26T06:59:31;7.80;98.70
2867;DHT22;1441;48.886;8.728;2024-02-26T07:01:56;7.70;99.30
2867;DHT22;1441;48.886;8.728;2024-02-26T07:04:22;7.80;99.30
2867;DHT22;1441;48.886;8.728;2024-02-26T07:06:48;7.80;98.80
2867;DHT22;1441;48.886;8.728;2024-02-26T07:09:13;7.80;99.20
2867;DHT22;1441;48.886;8.728;2024-02-26T07:11:39;7.90;98.90
2867;DHT22;1441;48.886;8.728;2024-02-26T07:14:10;7.90;98.70
2867;DHT22;1441;48.886;8.728;2024-02-26T07:16:36;7.90;98.90
2867;DHT22;1441;48.886;8.728;2024-02-26T07:19:02;7.80;99.40
2867;DHT22;1441;48.886;8.728;2024-02-26T07:21:28;7.80;99.20
2867;DHT22;1441;48.886;8.728;2024-02-26T07:23:53;7.80;99.50
2867;DHT22;1441;48.886;8.728;2024-02-26T07:26:19;7.70;99.60
2867;DHT22;1441;48.886;8.728;2024-02-26T07:28:45;7.70;99.90
2867;DHT22;1441;48.886;8.728;2024-02-26T07:31:10;7.60;99.90
2867;DHT22;1441;48.886;8.728;2024-02-26T07:33:36;7.50;99.90
2867;DHT22;1441;48.886;8.728;2024-02-26T07:36:02;7.40;99.90
2867;DHT22;1441;48.886;8.728;2024-02-26T07:38:27;7.30;99.90
2867;DHT22;1441;48.886;8.728;2024-02-26T07:40:53;7.30;99.90
2867;DHT22;1441;48.886;8.728;2024-02-26T07:43:18;7.20;99.90
2867;DHT22;1441;48.886;8.728;2024-02-26T07:45:44;7.30;99.90
2867;DHT22;1441;48.886;8.728;2024-02-26T07:48:09;7.30;99.90
2867;DHT22;1441;48.886;8.728;2024-02-26T07:50:35;7.20;99.90
2867;DHT22;1441;48.886;8.728;2024-02-26T07:53:00;7.20;99.90
2867;DHT22;1441;48.886;8.728;2024-02-26T07:55:26;7.20;99.90
2867;DHT22;1441;48.886;8.728;2024-02-26T07:57:51;7.10;99.90
2867;DHT22;1441;48.886;8.728;2024-02-26T08:00:18;7.20;99.90
2867;DHT22;1441;48.886;8.728;2024-02-26T08:02:43;7.10;99.90
2867;DHT22;1441;48.886;8.728;2024-02-26T08:05:09;7.10;99.90
2867;DHT22;1441;48.886;8.728;2024-02-26T08:07:35;7.20;99.90
2867;DHT22;1441;48.886;8.728;2024-02-26T08:10:00;7.30;99.90
2867;DHT22;1441;48.886;8.728;2024-02-26T08:12:26;7.40;99.90
2867;DHT22;1441;48.886;8.728;2024-02-26T08:14:51;7.40;99.90
2867;DHT22;1441;48.886;8.728;2024-02-26T08:17:17;7.60;99.90
2867;DHT22;1441;48.886;8.728;2024-02-26T08:19:42;7.60;99.90
2867;DHT22;1441;48.886;8.728;2024-02-26T08:22:08;7.70;99.90
2867;DHT22;1441;48.886;8.728;2024-02-26T08:24:35;7.70;99.90
2867;DHT22;1441;48.886;8.728;2024-02-26T08:27:01;7.80;99.90
2867;DHT22;1441;48.886;8.728;2024-02-26T08:29:26;7.90;99.90
2867;DHT22;1441;48.886;8.728;2024-02-26T08:31:52;8.00;99.90
2867;DHT22;1441;48.886;8.728;2024-02-26T08:34:18;8.00;99.90
2867;DHT22;1441;48.886;8.728;2024-02-26T08:36:43;8.00;99.90
2867;DHT22;1441;48.886;8.728;2024-02-26T08:39:09;8.00;99.90
2867;DHT22;1441;48.886;8.728;2024-02-26T08:41:35;8.10;99.90
2867;DHT22;1441;48.886;8.728;2024-02-26T08:44:01;8.00;99.90
2867;DHT22;1441;48.886;8.728;2024-02-26T08:46:26;8.10;99.90
2867;DHT22;1441;48.886;8.728;2024-02-26T08:48:52;8.10;99.90
2867;DHT22;1441;48.886;8.728;2024-02-26T08:51:17;8.10;99.90
2867;DHT22;1441;48.886;8.728;2024-02-26T08:53:43;8.20;99.90
2867;DHT22;1441;48.886;8.728;2024-02-26T08:56:08;8.20;99.90
2867;DHT22;1441;48.886;8.728;2024-02-26T08:58:34;8.30;99.90
2867;DHT22;1441;48.886;8.728;2024-02-26T09:00:59;8.40;99.40
2867;DHT22;1441;48.886;8.728;2024-02-26T09:03:25;8.50;99.40
2867;DHT22;1441;48.886;8.728;2024-02-26T09:05:51;8.60;98.70
2867;DHT22;1441;48.886;8.728;2024-02-26T09:08:17;8.60;98.50
2867;DHT22;1441;48.886;8.728;2024-02-26T09:10:42;8.70;98.30
2867;DHT22;1441;48.886;8.728;2024-02-26T09:13:08;8.70;98.00
2867;DHT22;1441;48.886;8.728;2024-02-26T09:15:34;8.70;98.10
2867;DHT22;1441;48.886;8.728;2024-02-26T09:17:59;8.70;97.90
2867;DHT22;1441;48.886;8.728;2024-02-26T09:20:25;8.90;97.80
2867;DHT22;1441;48.886;8.728;2024-02-26T09:22:50;8.80;97.50
2867;DHT22;1441;48.886;8.728;2024-02-26T09:25:16;9.00;97.40
2867;DHT22;1441;48.886;8.728;2024-02-26T09:27:43;9.10;97.30
2867;DHT22;1441;48.886;8.728;2024-02-26T09:30:10;9.10;96.50
2867;DHT22;1441;48.886;8.728;2024-02-26T09:32:37;9.30;96.60
2867;DHT22;1441;48.886;8.728;2024-02-26T09:35:02;9.40;95.60
2867;DHT22;1441;48.886;8.728;2024-02-26T09:37:28;9.40;96.10
2867;DHT22;1441;48.886;8.728;2024-02-26T09:39:54;9.40;95.40
2867;DHT22;1441;48.886;8.728;2024-02-26T09:42:19;9.50;95.00
2867;DHT22;1441;48.886;8.728;2024-02-26T09:44:46;9.40;98.30
2867;DHT22;1441;48.886;8.728;2024-02-26T09:47:14;9.30;99.30
2867;DHT22;1441;48.886;8.728;2024-02-26T09:49:43;9.40;99.40
2867;DHT22;1441;48.886;8.728;2024-02-26T09:52:09;9.50;99.10
2867;DHT22;1441;48.886;8.728;2024-02-26T09:54:35;9.60;97.40
2867;DHT22;1441;48.886;8.728;2024-02-26T09:57:03;9.70;96.90
2867;DHT22;1441;48.886;8.728;2024-02-26T09:59:29;9.80;95.50
2867;DHT22;1441;48.886;8.728;2024-02-26T10:02:00;10.00;95.70
2867;DHT22;1441;48.886;8.728;2024-02-26T10:04:26;10.00;95.80
2867;DHT22;1441;48.886;8.728;2024-02-26T10:06:52;10.10;95.70
2867;DHT22;1441;48.886;8.728;2024-02-26T10:09:19;10.10;95.60
2867;DHT22;1441;48.886;8.728;2024-02-26T10:11:46;10.10;95.00
2867;DHT22;1441;48.886;8.728;2024-02-26T10:14:14;10.20;95.50
2867;DHT22;1441;48.886;8.728;2024-02-26T10:16:41;10.30;95.30
2867;DHT22;1441;48.886;8.728;2024-02-26T10:19:06;10.40;95.10
2867;DHT22;1441;48.886;8.728;2024-02-26T10:21:32;10.40;96.20
2867;DHT22;1441;48.886;8.728;2024-02-26T10:23:57;10.60;96.00
2867;DHT22;1441;48.886;8.728;2024-02-26T10:26:23;10.60;94.80
2867;DHT22;1441;48.886;8.728;2024-02-26T10:28:49;10.40;94.20
2867;DHT22;1441;48.886;8.728;2024-02-26T10:31:15;10.30;94.00
2867;DHT22;1441;48.886;8.728;2024-02-26T10:33:41;10.30;94.50
2867;DHT22;1441;48.886;8.728;2024-02-26T10:36:08;10.60;94.30
2867;DHT22;1441;48.886;8.728;2024-02-26T10:38:34;10.90;94.30
2867;DHT22;1441;48.886;8.728;2024-02-26T10:41:13;11.30;92.80
2867;DHT22;1441;48.886;8.728;2024-02-26T10:43:42;11.50;92.40
2867;DHT22;1441;48.886;8.728;2024-02-26T10:46:08;11.60;90.80
2867;DHT22;1441;48.886;8.728;2024-02-26T10:48:35;11.60;90.50
2867;DHT22;1441;48.886;8.728;2024-02-26T10:51:00;11.50;90.30
2867;DHT22;1441;48.886;8.728;2024-02-26T10:53:29;11.70;90.00
2867;DHT22;1441;48.886;8.728;2024-02-26T10:55:57;11.90;89.30
2867;DHT22;1441;48.886;8.728;2024-02-26T10:58:24;12.00;88.40
2867;DHT22;1441;48.886;8.728;2024-02-26T11:00:51;12.20;88.40
2867;DHT22;1441;48.886;8.728;2024-02-26T11:03:18;12.40;87.30
2867;DHT22;1441;48.886;8.728;2024-02-26T11:05:49;12.50;89.50
2867;DHT22;1441;48.886;8.728;2024-02-26T11:08:19;12.60;90.60
2867;DHT22;1441;48.886;8.728;2024-02-26T11:10:47;12.50;91.10
2867;DHT22;1441;48.886;8.728;2024-02-26T11:13:16;12.60;87.40
2867;DHT22;1441;48.886;8.728;2024-02-26T11:15:45;12.60;87.20
2867;DHT22;1441;48.886;8.728;2024-02-26T11:18:14;12.60;86.90
2867;DHT22;1441;48.886;8.728;2024-02-26T11:20:40;12.60;87.30
2867;DHT22;1441;48.886;8.728;2024-02-26T11:23:07;12.60;86.90
2867;DHT22;1441;48.886;8.728;2024-02-26T11:25:35;12.60;86.30
2867;DHT22;1441;48.886;8.728;2024-02-26T11:28:05;12.70;87.50
2867;DHT22;1441;48.886;8.728;2024-02-26T11:30:34;12.80;87.70
2867;DHT22;1441;48.886;8.728;2024-02-26T11:33:00;12.80;86.20
2867;DHT22;1441;48.886;8.728;2024-02-26T11:35:26;12.90;86.90
2867;DHT22;1441;48.886;8.728;2024-02-26T11:37:56;12.90;87.60
2867;DHT22;1441;48.886;8.728;2024-02-26T11:40:25;13.00;86.80
2867;DHT22;1441;48.886;8.728;2024-02-26T11:42:52;13.10;86.50
2867;DHT22;1441;48.886;8.728;2024-02-26T11:48:22;13.40;84.80
2867;DHT22;1441;48.886;8.728;2024-02-26T11:50:56;13.20;84.60
2867;DHT22;1441;48.886;8.728;2024-02-26T11:53:23;13.10;85.10
2867;DHT22;1441;48.886;8.728;2024-02-26T11:59:09;13.00;84.70
2867;DHT22;1441;48.886;8.728;2024-02-26T12:01:36;13.00;85.50
2867;DHT22;1441;48.886;8.728;2024-02-26T12:04:06;13.10;85.30
2867;DHT22;1441;48.886;8.728;2024-02-26T12:06:41;13.20;85.30
2867;DHT22;1441;48.886;8.728;2024-02-26T12:09:07;13.40;84.70
2867;DHT22;1441;48.886;8.728;2024-02-26T12:11:37;13.60;84.00
2867;DHT22;1441;48.886;8.728;2024-02-26T12:14:05;13.80;82.50
2867;DHT22;1441;48.886;8.728;2024-02-26T12:16:40;13.60;84.00
2867;DHT22;1441;48.886;8.728;2024-02-26T12:19:09;13.80;85.10
2867;DHT22;1441;48.886;8.728;2024-02-26T12:21:36;14.10;84.80
2867;DHT22;1441;48.886;8.728;2024-02-26T12:24:13;14.10;83.00
2867;DHT22;1441;48.886;8.728;2024-02-26T12:26:40;14.10;81.60
2867;DHT22;1441;48.886;8.728;2024-02-26T12:29:06;13.90;82.00
2867;DHT22;1441;48.886;8.728;2024-02-26T12:31:35;13.70;83.10
2867;DHT22;1441;48.886;8.728;2024-02-26T12:34:04;13.60;83.40
2867;DHT22;1441;48.886;8.728;2024-02-26T12:36:30;13.50;84.80
2867;DHT22;1441;48.886;8.728;2024-02-26T12:38:56;13.70;83.50
2867;DHT22;1441;48.886;8.728;2024-02-26T12:41:22;13.90;82.90
2867;DHT22;1441;48.886;8.728;2024-02-26T12:43:48;13.70;84.30
2867;DHT22;1441;48.886;8.728;2024-02-26T12:46:14;13.80;84.30
2867;DHT22;1441;48.886;8.728;2024-02-26T12:48:43;13.90;83.10
2867;DHT22;1441;48.886;8.728;2024-02-26T12:51:11;14.00;83.50
2867;DHT22;1441;48.886;8.728;2024-02-26T12:53:37;14.10;84.00
2867;DHT22;1441;48.886;8.728;2024-02-26T12:56:04;14.00;84.00
2867;DHT22;1441;48.886;8.728;2024-02-26T12:58:30;13.90;84.70
2867;DHT22;1441;48.886;8.728;2024-02-26T13:00:56;13.90;85.10
2867;DHT22;1441;48.886;8.728;2024-02-26T13:03:22;14.00;84.30
2867;DHT22;1441;48.886;8.728;2024-02-26T13:05:49;14.00;84.50
2867;DHT22;1441;48.886;8.728;2024-02-26T13:08:19;14.10;83.80
2867;DHT22;1441;48.886;8.728;2024-02-26T13:10:48;13.90;83.30
2867;DHT22;1441;48.886;8.728;2024-02-26T13:13:17;13.90;83.30
2867;DHT22;1441;48.886;8.728;2024-02-26T13:15:43;13.80;83.90
2867;DHT22;1441;48.886;8.728;2024-02-26T13:18:15;13.70;82.90
2867;DHT22;1441;48.886;8.728;2024-02-26T13:20:41;13.70;82.70
2867;DHT22;1441;48.886;8.728;2024-02-26T13:23:11;13.70;83.20
2867;DHT22;1441;48.886;8.728;2024-02-26T13:25:37;13.50;83.70
2867;DHT22;1441;48.886;8.728;2024-02-26T13:30:34;13.70;83.30
2867;DHT22;1441;48.886;8.728;2024-02-26T13:33:10;13.80;83.00
2867;DHT22;1441;48.886;8.728;2024-02-26T13:35:38;13.90;82.30
2867;DHT22;1441;48.886;8.728;2024-02-26T13:38:05;14.00;81.80
2867;DHT22;1441;48.886;8.728;2024-02-26T13:40:32;14.10;81.00
2867;DHT22;1441;48.886;8.728;2024-02-26T13:42:58;14.20;81.60
2867;DHT22;1441;48.886;8.728;2024-02-26T13:45:23;14.20;80.40
2867;DHT22;1441;48.886;8.728;2024-02-26T13:47:49;14.10;80.40
2867;DHT22;1441;48.886;8.728;2024-02-26T13:50:14;14.10;80.60
2867;DHT22;1441;48.886;8.728;2024-02-26T13:52:40;14.00;80.50
2867;DHT22;1441;48.886;8.728;2024-02-26T13:55:06;14.00;79.40
2867;DHT22;1441;48.886;8.728;2024-02-26T13:57:32;13.90;79.50
2867;DHT22;1441;48.886;8.728;2024-02-26T13:59:58;13.80;79.90
2867;DHT22;1441;48.886;8.728;2024-02-26T14:02:24;13.90;80.00
2867;DHT22;1441;48.886;8.728;2024-02-26T14:04:49;13.90;79.70
2867;DHT22;1441;48.886;8.728;2024-02-26T14:07:15;13.90;79.70
2867;DHT22;1441;48.886;8.728;2024-02-26T14:09:42;13.90;79.30
2867;DHT22;1441;48.886;8.728;2024-02-26T14:12:08;13.80;79.30
2867;DHT22;1441;48.886;8.728;2024-02-26T14:14:33;13.90;79.20
2867;DHT22;1441;48.886;8.728;2024-02-26T14:17:03;13.90;79.20
2867;DHT22;1441;48.886;8.728;2024-02-26T14:19:29;13.90;79.20
2867;DHT22;1441;48.886;8.728;2024-02-26T14:21:55;13.80;79.60
2867;DHT22;1441;48.886;8.728;2024-02-26T14:24:20;13.70;80.60
2867;DHT22;1441;48.886;8.728;2024-02-26T14:26:46;13.50;81.00
2867;DHT22;1441;48.886;8.728;2024-02-26T14:29:11;13.40;82.10
2867;DHT22;1441;48.886;8.728;2024-02-26T14:31:37;13.40;82.70
2867;DHT22;1441;48.886;8.728;2024-02-26T14:34:02;13.40;82.30
2867;DHT22;1441;48.886;8.728;2024-02-26T14:36:28;13.40;82.00
2867;DHT22;1441;48.886;8.728;2024-02-26T14:38:54;13.40;81.30
2867;DHT22;1441;48.886;8.728;2024-02-26T14:41:20;13.30;81.70
2867;DHT22;1441;48.886;8.728;2024-02-26T14:43:45;13.30;81.40
2867;DHT22;1441;48.886;8.728;2024-02-26T14:46:11;13.30;80.10
2867;DHT22;1441;48.886;8.728;2024-02-26T14:48:36;13.30;80.20
2867;DHT22;1441;48.886;8.728;2024-02-26T14:51:02;13.50;80.10
2867;DHT22;1441;48.886;8.728;2024-02-26T14:53:28;13.50;79.00
2867;DHT22;1441;48.886;8.728;2024-02-26T14:55:53;13.60;78.80
2867;DHT22;1441;48.886;8.728;2024-02-26T14:58:19;13.60;78.30
2867;DHT22;1441;48.886;8.728;2024-02-26T15:00:44;13.50;77.80
2867;DHT22;1441;48.886;8.728;2024-02-26T15:03:10;13.40;77.80
2867;DHT22;1441;48.886;8.728;2024-02-26T15:05:36;13.50;78.40
2867;DHT22;1441;48.886;8.728;2024-02-26T15:08:01;13.50;78.60
2867;DHT22;1441;48.886;8.728;2024-02-26T15:10:28;13.50;78.30
2867;DHT22;1441;48.886;8.728;2024-02-26T15:12:56;13.50;78.30
2867;DHT22;1441;48.886;8.728;2024-02-26T15:15:22;13.60;77.80
2867;DHT22;1441;48.886;8.728;2024-02-26T15:17:48;13.60;78.00
2867;DHT22;1441;48.886;8.728;2024-02-26T15:20:16;13.50;78.10
2867;DHT22;1441;48.886;8.728;2024-02-26T15:22:42;13.50;78.00
2867;DHT22;1441;48.886;8.728;2024-02-26T15:25:08;13.70;78.60
2867;DHT22;1441;48.886;8.728;2024-02-26T15:27:34;13.60;77.70
2867;DHT22;1441;48.886;8.728;2024-02-26T15:30:00;13.70;78.70
2867;DHT22;1441;48.886;8.728;2024-02-26T15:32:26;13.70;77.80
2867;DHT22;1441;48.886;8.728;2024-02-26T15:34:53;13.60;78.20
2867;DHT22;1441;48.886;8.728;2024-02-26T15:37:18;13.50;78.60
2867;DHT22;1441;48.886;8.728;2024-02-26T15:39:44;13.40;79.00
2867;DHT22;1441;48.886;8.728;2024-02-26T15:42:10;13.30;78.80
2867;DHT22;1441;48.886;8.728;2024-02-26T15:44:37;13.40;79.30
2867;DHT22;1441;48.886;8.728;2024-02-26T15:47:03;13.40;79.50
2867;DHT22;1441;48.886;8.728;2024-02-26T15:49:30;13.50;79.30
2867;DHT22;1441;48.886;8.728;2024-02-26T15:51:56;13.50;78.90
2867;DHT22;1441;48.886;8.728;2024-02-26T15:54:21;13.40;79.00
2867;DHT22;1441;48.886;8.728;2024-02-26T15:56:47;13.30;79.70
2867;DHT22;1441;48.886;8.728;2024-02-26T15:59:12;13.30;80.20
2867;DHT22;1441;48.886;8.728;2024-02-26T16:01:38;13.20;80.10
2867;DHT22;1441;48.886;8.728;2024-02-26T16:04:04;13.20;80.00
2867;DHT22;1441;48.886;8.728;2024-02-26T16:07:05;13.20;80.10
2867;DHT22;1441;48.886;8.728;2024-02-26T16:09:24;13.10;79.90
2867;DHT22;1441;48.886;8.728;2024-02-26T16:11:49;13.10;80.30
2867;DHT22;1441;48.886;8.728;2024-02-26T16:14:42;13.10;80.60